Time;durP1;ratioP1;P1;durP2;ratioP2;P2;SDS_P1;SDS_P2;PMS_P1;PMS_P2;Temp;Humidity;BMP_temperature;BMP_pressure;BME280_temperature;BME280_humidity;BME280_pressure;Samples;Min_cycle;Max_cycle;Signal;HPM_P1;HPM_P2
2022/11/29 00:01:41;;;;;;;;;;;10.90;63.80;;;6.17;100.00;95283.78;5013724;28;19934;-50
2022/11/29 00:04:08;;;;;;;;;;;10.90;64.00;;;6.11;100.00;95295.34;5013056;28;19909;-54
2022/11/29 00:06:35;;;;;;;;;;;10.90;64.00;;;6.09;100.00;95287.66;4995406;28;20011;-55
2022/11/29 00:09:10;;;;;;;;;;;10.80;64.10;;;6.09;100.00;95281.59;5010545;28;19920;-51
2022/11/29 00:14:27;;;;;;;;;;;10.80;64.20;;;6.05;100.00;95280.44;5031938;28;20334;-49
2022/11/29 00:17:00;;;;;;;;;;;10.80;64.30;;;6.03;100.00;95276.22;5013326;28;19938;-52
2022/11/29 00:19:27;;;;;;;;;;;10.80;64.40;;;6.00;100.00;95265.31;5031652;28;19919;-50
2022/11/29 00:22:01;;;;;;;;;;;10.70;64.40;;;6.00;100.00;95271.41;5014351;28;19912;-50
2022/11/29 00:24:30;;;;;;;;;;;10.70;64.40;;;6.00;100.00;95270.63;5030966;28;20124;-52
2022/11/29 00:27:00;;;;;;;;;;;10.70;64.50;;;5.96;100.00;95266.88;5029466;28;20356;-50
2022/11/29 00:29:27;;;;;;;;;;;10.60;64.40;;;5.95;100.00;95262.59;5014476;28;19915;-50
2022/11/29 00:31:59;;;;;;;;;;;10.70;64.50;;;5.96;100.00;95269.50;5029878;28;20704;-50
2022/11/29 00:34:25;;;;;;;;;;;10.70;64.60;;;5.96;100.00;95272.16;5014279;28;20275;-49
2022/11/29 00:36:51;;;;;;;;;;;10.70;64.60;;;5.94;100.00;95275.03;4993408;28;19913;-53
2022/11/29 00:39:17;;;;;;;;;;;10.70;64.60;;;5.91;100.00;95278.13;5028061;28;19916;-50
2022/11/29 00:41:44;;;;;;;;;;;10.70;64.60;;;5.92;100.00;95281.56;5030203;28;19916;-51
2022/11/29 00:44:10;;;;;;;;;;;10.70;64.70;;;5.91;100.00;95278.13;5030639;28;19951;-53
2022/11/29 00:46:36;;;;;;;;;;;10.70;64.70;;;5.90;100.00;95275.72;5011673;28;19913;-52
2022/11/29 00:49:03;;;;;;;;;;;10.70;64.70;;;5.91;100.00;95277.31;5011169;28;19916;-50
2022/11/29 00:51:32;;;;;;;;;;;10.70;64.70;;;5.89;100.00;95277.56;5013232;28;19913;-50
2022/11/29 00:53:58;;;;;;;;;;;10.80;64.70;;;5.90;100.00;95267.81;4997518;28;19909;-53
2022/11/29 00:56:24;;;;;;;;;;;10.80;64.70;;;5.89;100.00;95272.28;5011824;28;19919;-51
2022/11/29 00:58:59;;;;;;;;;;;10.80;64.70;;;5.86;100.00;95269.31;5013278;28;19919;-50
2022/11/29 01:01:27;;;;;;;;;;;10.80;64.70;;;5.87;100.00;95268.28;5012654;28;19912;-51
2022/11/29 01:03:56;;;;;;;;;;;10.70;64.70;;;5.85;100.00;95260.59;5029925;28;19919;-50
2022/11/29 01:06:27;;;;;;;;;;;10.70;64.70;;;5.87;100.00;95266.44;5011600;28;20292;-49
2022/11/29 01:08:58;;;;;;;;;;;10.70;64.80;;;5.87;100.00;95266.44;5014305;28;20378;-50
2022/11/29 01:11:28;;;;;;;;;;;10.70;64.90;;;5.88;100.00;95269.88;5028338;28;19920;-50
2022/11/29 01:13:58;;;;;;;;;;;10.70;64.90;;;5.86;100.00;95275.41;5009035;28;20613;-53
2022/11/29 01:16:34;;;;;;;;;;;10.70;65.00;;;5.84;100.00;95268.78;4993715;28;19951;-51
2022/11/29 01:19:00;;;;;;;;;;;10.70;65.00;;;5.84;100.00;95272.22;5030498;28;19913;-51
2022/11/29 01:21:28;;;;;;;;;;;10.70;65.00;;;5.86;100.00;95271.94;5021892;28;19961;-50
2022/11/29 01:24:03;;;;;;;;;;;10.60;65.10;;;5.83;100.00;95275.06;5008624;28;19912;-51
2022/11/29 01:26:31;;;;;;;;;;;10.60;65.10;;;5.83;100.00;95275.06;5021649;28;19916;-49
2022/11/29 01:28:58;;;;;;;;;;;10.60;65.20;;;5.83;100.00;95270.63;5006647;28;19909;-50
2022/11/29 01:31:31;;;;;;;;;;;10.60;65.20;;;5.83;100.00;95270.63;5025566;28;20614;-51
2022/11/29 01:34:05;;;;;;;;;;;10.60;65.20;;;5.82;100.00;95266.34;5029119;28;19909;-49
2022/11/29 01:36:32;;;;;;;;;;;10.60;65.30;;;5.82;100.00;95263.72;5009797;28;19913;-49
2022/11/29 01:39:01;;;;;;;;;;;10.60;65.30;;;5.80;100.00;95266.59;5020260;28;20003;-50
2022/11/29 01:41:31;;;;;;;;;;;10.60;65.30;;;5.79;100.00;95261.53;4999725;28;19909;-51
2022/11/29 01:44:11;;;;;;;;;;;10.60;66.10;;;5.73;100.00;95263.31;4994797;28;19951;-54
2022/11/29 01:46:44;;;;;;;;;;;10.60;65.30;;;5.71;100.00;95256.69;4993544;28;19963;-50
2022/11/29 01:49:33;;;;;;;;;;;10.60;65.40;;;5.69;100.00;95258.75;5022247;28;19917;-53
2022/11/29 01:52:24;;;;;;;;;;;10.50;65.30;;;5.69;100.00;95256.91;5023065;28;19962;-50
2022/11/29 01:55:01;;;;;;;;;;;10.50;65.30;;;5.69;100.00;95259.56;5010802;28;20366;-50
2022/11/29 01:57:31;;;;;;;;;;;10.50;65.40;;;5.69;100.00;95256.13;5010528;28;19917;-49
2022/11/29 02:00:08;;;;;;;;;;;10.50;65.40;;;5.65;100.00;95257.66;5000187;28;20363;-50
2022/11/29 02:02:52;;;;;;;;;;;10.50;65.50;;;5.62;100.00;95261.56;4989288;28;19909;-54
2022/11/29 02:05:28;;;;;;;;;;;10.50;66.20;;;5.59;100.00;95262.06;5026983;28;20267;-50
2022/11/29 02:07:57;;;;;;;;;;;10.50;65.50;;;5.60;100.00;95262.84;5016000;28;19912;-51
2022/11/29 02:10:56;;;;;;;;;;;10.40;65.50;;;5.57;100.00;95259.63;5008798;28;19921;-50
2022/11/29 02:14:14;;;;;;;;;;;10.40;65.50;;;5.56;100.00;95263.31;5025649;28;19952;-50
2022/11/29 02:17:00;;;;;;;;;;;10.40;65.50;;;5.55;100.00;95264.38;5012460;28;19931;-52
2022/11/29 02:19:44;;;;;;;;;;;10.30;65.60;;;5.55;100.00;95267.03;5003325;28;19979;-49
2022/11/29 02:22:40;;;;;;;;;;;10.30;65.70;;;5.51;100.00;95265.09;5029151;28;20388;-49
2022/11/29 02:26:02;;;;;;;;;;;10.30;65.80;;;5.49;100.00;95256.63;5029879;28;19932;-49
2022/11/29 02:29:05;;;;;;;;;;;10.30;65.70;;;5.46;100.00;95265.81;5012272;28;19940;-50
2022/11/29 02:31:58;;;;;;;;;;;10.30;65.80;;;5.43;100.00;95263.66;5014500;28;20342;-51
2022/11/29 02:34:57;;;;;;;;;;;10.30;65.80;;;5.44;100.00;95259.16;5015254;28;19920;-49
2022/11/29 02:37:44;;;;;;;;;;;10.20;65.70;;;5.43;100.00;95261.00;5011214;28;19913;-50
2022/11/29 02:40:22;;;;;;;;;;;10.20;65.80;;;5.45;100.00;95261.59;4994650;28;20383;-50
2022/11/29 02:43:15;;;;;;;;;;;10.20;65.90;;;5.46;100.00;95259.72;4997010;28;20438;-50
2022/11/29 02:45:54;;;;;;;;;;;10.20;66.00;;;5.47;100.00;95264.75;5027420;28;19956;-51
2022/11/29 02:49:13;;;;;;;;;;;10.20;66.10;;;5.46;100.00;95263.16;5033442;28;19915;-54
2022/11/29 02:52:03;;;;;;;;;;;10.20;66.10;;;5.47;100.00;95259.47;5010239;28;19909;-51
2022/11/29 02:54:45;;;;;;;;;;;10.30;66.20;;;5.48;100.00;95257.63;5033941;28;20003;-49
2022/11/29 02:57:36;;;;;;;;;;;10.30;66.30;;;5.49;100.00;95254.78;5016407;28;19908;-49
2022/11/29 03:00:21;;;;;;;;;;;10.30;66.20;;;5.50;100.00;95264.28;5033712;28;19908;-50
2022/11/29 03:03:17;;;;;;;;;;;10.30;66.30;;;5.49;100.00;95265.34;5024207;28;20413;-49
2022/11/29 03:06:37;;;;;;;;;;;10.30;66.20;;;5.53;100.00;95261.16;4997004;28;20324;-51
2022/11/29 03:09:36;;;;;;;;;;;10.30;66.20;;;5.53;100.00;95257.72;5029202;28;19962;-50
2022/11/29 03:12:43;;;;;;;;;;;10.30;66.30;;;5.55;100.00;95255.66;5032537;28;19924;-50
2022/11/29 03:15:44;;;;;;;;;;;10.40;66.30;;;5.54;100.00;95265.41;5031564;28;19913;-49
2022/11/29 03:18:44;;;;;;;;;;;10.40;66.30;;;5.56;100.00;95265.97;5016224;28;19912;-50
2022/11/29 03:21:44;;;;;;;;;;;10.40;66.30;;;5.57;100.00;95264.13;5019301;28;20428;-49
2022/11/29 03:24:39;;;;;;;;;;;10.40;66.30;;;5.57;100.00;95261.47;5024256;28;19913;-52
2022/11/29 03:27:15;;;;;;;;;;;10.40;66.40;;;5.60;100.00;95270.78;5027506;28;19958;-49
2022/11/29 03:30:00;;;;;;;;;;;10.40;66.40;;;5.57;100.00;95274.69;5032012;28;19919;-49
2022/11/29 03:33:11;;;;;;;;;;;10.40;66.40;;;5.60;100.00;95273.41;5031355;28;19947;-53
2022/11/29 03:36:00;;;;;;;;;;;10.50;66.40;;;5.59;100.00;95271.81;5032941;28;20511;-50
2022/11/29 03:38:43;;;;;;;;;;;10.40;66.40;;;5.57;100.00;95274.69;5031840;28;19920;-52
2022/11/29 03:41:54;;;;;;;;;;;10.50;66.40;;;5.56;100.00;95273.91;5015171;28;20458;-51
2022/11/29 03:44:38;;;;;;;;;;;10.50;66.40;;;5.56;100.00;95271.25;5006254;28;19952;-50
2022/11/29 03:47:16;;;;;;;;;;;10.50;66.40;;;5.58;100.00;95276.31;5015685;28;19970;-53
2022/11/29 03:49:54;;;;;;;;;;;10.50;66.40;;;5.58;100.00;95273.66;5014860;28;19916;-49
2022/11/29 03:53:02;;;;;;;;;;;10.50;66.40;;;5.54;100.00;95272.53;5014675;28;19929;-49
2022/11/29 03:56:29;;;;;;;;;;;10.50;66.30;;;5.53;100.00;95278.88;5030534;28;19913;-50
2022/11/29 03:59:57;;;;;;;;;;;10.50;66.40;;;5.51;100.00;95279.09;5007643;28;19921;-53
2022/11/29 04:03:18;;;;;;;;;;;10.50;66.40;;;5.51;100.00;95289.66;5030421;28;19974;-50
2022/11/29 04:06:06;;;;;;;;;;;10.50;66.40;;;5.52;100.00;95277.28;4955363;28;20389;-50
2022/11/29 04:08:57;;;;;;;;;;;10.40;66.50;;;5.51;100.00;95276.44;5031743;28;20325;-50
2022/11/29 04:11:54;;;;;;;;;;;10.40;66.50;;;5.50;100.00;95280.13;5033581;23;19925;-53
2022/11/29 04:14:41;;;;;;;;;;;10.40;66.50;;;5.52;100.00;95279.91;5017089;28;19913;-52
2022/11/29 04:17:46;;;;;;;;;;;10.40;66.60;;;5.52;100.00;95279.91;5027404;28;19916;-51
2022/11/29 04:20:39;;;;;;;;;;;10.40;66.60;;;5.52;100.00;95279.91;4995716;28;20267;-51
2022/11/29 04:23:16;;;;;;;;;;;10.40;66.60;;;5.50;100.00;95280.13;4993078;28;19932;-52
2022/11/29 04:26:26;;;;;;;;;;;10.40;67.40;;;5.48;100.00;95279.56;5010217;28;19909;-51
2022/11/29 04:29:38;;;;;;;;;;;10.40;66.50;;;5.45;100.00;95279.25;4992771;28;19913;-49
2022/11/29 04:32:24;;;;;;;;;;;10.40;66.50;;;5.43;100.00;95276.84;5007162;28;19914;-48
2022/11/29 04:35:50;;;;;;;;;;;10.40;67.30;;;5.43;100.00;95276.06;5025804;28;19909;-52
2022/11/29 04:38:41;;;;;;;;;;;10.30;66.50;;;5.40;100.00;95279.97;5006931;28;19923;-50
2022/11/29 04:41:13;;;;;;;;;;;10.30;66.60;;;5.39;100.00;95283.66;5011742;28;19959;-49
2022/11/29 04:44:16;;;;;;;;;;;10.30;66.60;;;5.39;100.00;95281.03;5021818;28;19909;-49
2022/11/29 04:46:58;;;;;;;;;;;10.30;66.60;;;5.39;100.00;95285.47;4990849;28;20283;-54
2022/11/29 04:50:05;;;;;;;;;;;10.30;66.70;;;5.38;100.00;95281.25;4990204;28;20388;-51
2022/11/29 04:53:22;;;;;;;;;;;10.20;66.70;;;5.34;100.00;95289.66;4992235;28;19996;-49
2022/11/29 04:56:10;;;;;;;;;;;10.20;66.70;;;5.32;100.00;95289.06;4978964;28;19936;-49
2022/11/29 04:59:01;;;;;;;;;;;10.20;66.70;;;5.31;100.00;95295.41;4957106;28;19937;-50
2022/11/29 05:01:26;;;;;;;;;;;10.20;66.80;;;5.30;100.00;95293.03;5008255;28;19909;-53
2022/11/29 05:04:20;;;;;;;;;;;10.20;66.80;;;5.28;100.00;95293.25;5008201;28;19909;-52
2022/11/29 05:07:20;;;;;;;;;;;10.20;66.90;;;5.28;100.00;95293.25;5014776;28;20012;-52
2022/11/29 05:10:24;;;;;;;;;;;10.20;66.90;;;5.28;100.00;95295.88;4982598;28;20009;-48
2022/11/29 05:13:36;;;;;;;;;;;10.20;66.90;;;5.28;100.00;95298.53;4987646;28;20059;-48
2022/11/29 05:16:23;;;;;;;;;;;10.10;66.90;;;5.29;100.00;95307.25;4983553;28;19909;-50
2022/11/29 05:19:14;;;;;;;;;;;10.10;67.00;;;5.27;100.00;95304.84;5011119;28;20298;-49
2022/11/29 05:22:17;;;;;;;;;;;10.10;67.80;;;5.25;100.00;95306.91;5011253;28;20002;-48
2022/11/29 05:25:12;;;;;;;;;;;10.10;67.00;;;5.27;100.00;95314.63;5005809;28;19909;-50
2022/11/29 05:28:23;;;;;;;;;;;10.10;67.10;;;5.29;100.00;95315.16;4988910;28;20332;-48
2022/11/29 05:31:21;;;;;;;;;;;10.10;67.10;;;5.28;100.00;95313.56;4990324;28;20406;-48
2022/11/29 05:34:04;;;;;;;;;;;10.10;67.20;;;5.32;100.00;95317.34;4987529;28;19914;-48
2022/11/29 05:37:11;;;;;;;;;;;10.10;67.20;;;5.34;100.00;95321.34;5028886;28;20380;-50
2022/11/29 05:40:33;;;;;;;;;;;10.10;67.30;;;5.35;100.00;95324.78;4993824;28;20358;-48
2022/11/29 05:43:27;;;;;;;;;;;10.10;67.30;;;5.36;100.00;95318.47;5011083;28;20015;-50
2022/11/29 05:46:41;;;;;;;;;;;10.20;67.40;;;5.38;100.00;95328.78;5020272;28;19970;-52
2022/11/29 05:49:31;;;;;;;;;;;10.20;67.40;;;5.35;100.00;95324.78;4970508;28;19908;-51
2022/11/29 05:52:18;;;;;;;;;;;10.20;67.40;;;5.33;100.00;95327.69;5003087;28;19913;-49
2022/11/29 05:55:18;;;;;;;;;;;10.30;67.40;;;5.34;100.00;95326.63;5010339;28;19967;-50
2022/11/29 05:58:09;;;;;;;;;;;10.30;67.80;;;5.37;100.00;95333.28;5010440;28;19959;-48
2022/11/29 06:00:53;;;;;;;;;;;10.30;67.30;;;5.39;100.00;95330.38;5009392;28;20322;-50
2022/11/29 06:03:43;;;;;;;;;;;10.30;67.30;;;5.40;100.00;95330.16;4993687;28;19917;-48
2022/11/29 06:06:45;;;;;;;;;;;10.30;67.30;;;5.44;100.00;95335.78;4997394;28;20319;-53
2022/11/29 06:09:59;;;;;;;;;;;10.30;67.30;;;5.40;100.00;95337.28;4990590;28;19931;-48
2022/11/29 06:12:34;;;;;;;;;;;10.30;67.40;;;5.37;100.00;95335.13;4989027;28;19921;-48
2022/11/29 06:15:39;;;;;;;;;;;10.30;67.30;;;5.39;100.00;95336.50;4974796;28;19913;-51
2022/11/29 06:18:45;;;;;;;;;;;10.30;67.40;;;5.40;100.00;95339.94;4994933;28;20392;-50
2022/11/29 06:21:41;;;;;;;;;;;10.20;67.30;;;5.40;100.00;95337.28;4988479;28;19964;-50
2022/11/29 06:24:36;;;;;;;;;;;10.20;67.40;;;5.42;100.00;95343.13;4993094;28;19915;-52
2022/11/29 06:28:10;;;;;;;;;;;10.20;67.50;;;5.44;100.00;95349.78;4971927;28;19909;-50
2022/11/29 06:30:59;;;;;;;;;;;10.20;67.50;;;5.42;100.00;95346.59;5003480;28;19909;-50
2022/11/29 06:34:04;;;;;;;;;;;10.20;67.50;;;5.42;100.00;95345.75;4990386;28;20724;-49
2022/11/29 06:36:53;;;;;;;;;;;10.20;67.50;;;5.39;100.00;95341.78;4937609;28;19914;-52
2022/11/29 06:39:19;;;;;;;;;;;10.20;67.50;;;5.39;100.00;95354.16;4990581;28;19914;-48
2022/11/29 06:41:48;;;;;;;;;;;10.20;67.40;;;5.37;100.00;95354.41;4997797;28;19913;-50
2022/11/29 06:44:14;;;;;;;;;;;10.20;67.40;;;5.36;100.00;95350.19;4987808;28;19914;-52
2022/11/29 06:47:17;;;;;;;;;;;10.20;67.40;;;5.36;100.00;95347.53;4980259;28;19913;-49
2022/11/29 06:50:36;;;;;;;;;;;10.30;67.50;;;5.34;100.00;95357.53;4989776;28;19936;-52
2022/11/29 06:53:29;;;;;;;;;;;10.20;67.50;;;5.36;100.00;95358.09;5005609;28;19908;-48
2022/11/29 06:56:33;;;;;;;;;;;10.30;67.60;;;5.35;100.00;95359.13;4988824;28;20377;-49
2022/11/29 06:59:28;;;;;;;;;;;10.20;67.50;;;5.35;100.00;95361.75;5007347;28;20307;-51
2022/11/29 07:02:36;;;;;;;;;;;10.20;67.50;;;5.34;100.00;95357.53;4988335;28;20015;-53
2022/11/29 07:05:24;;;;;;;;;;;10.30;67.60;;;5.33;100.00;95362.00;4980678;28;19917;-53
2022/11/29 07:07:56;;;;;;;;;;;10.20;67.50;;;5.33;100.00;95367.28;4989187;28;19913;-54
2022/11/29 07:10:29;;;;;;;;;;;10.30;67.60;;;5.34;100.00;95368.88;4953679;28;20404;-48
2022/11/29 07:12:55;;;;;;;;;;;10.30;67.50;;;5.35;100.00;95374.97;4982715;28;19928;-52
2022/11/29 07:15:22;;;;;;;;;;;10.30;67.50;;;5.33;100.00;95369.94;4962968;28;19947;-49
2022/11/29 07:18:28;;;;;;;;;;;10.30;67.50;;;5.34;100.00;95368.88;4974558;28;19971;-52
2022/11/29 07:21:16;;;;;;;;;;;10.30;67.50;;;5.36;100.00;95384.50;4991120;28;19940;-49
2022/11/29 07:24:02;;;;;;;;;;;10.40;67.60;;;5.36;100.00;95384.50;4990155;28;19917;-49
2022/11/29 07:26:52;;;;;;;;;;;10.40;67.60;;;5.37;100.00;95380.03;4990346;28;19916;-49
2022/11/29 07:29:43;;;;;;;;;;;10.40;67.60;;;5.36;100.00;95383.69;4997919;28;19909;-50
2022/11/29 07:32:35;;;;;;;;;;;10.40;67.60;;;5.41;100.00;95387.22;4992524;28;20347;-51
2022/11/29 07:35:30;;;;;;;;;;;10.50;67.60;;;5.45;100.00;95382.28;4990792;28;19913;-49
2022/11/29 07:38:26;;;;;;;;;;;10.50;67.60;;;5.52;100.00;95382.94;4975149;28;20361;-51
2022/11/29 07:41:06;;;;;;;;;;;10.50;67.60;;;5.53;100.00;95385.34;4992692;28;19913;-50
2022/11/29 07:44:04;;;;;;;;;;;10.60;67.60;;;5.56;100.00;95384.06;4979845;28;19913;-54
2022/11/29 07:46:33;;;;;;;;;;;10.60;67.60;;;5.59;100.00;95383.59;4925456;28;20448;-51
2022/11/29 07:49:02;;;;;;;;;;;10.70;67.50;;;5.62;100.00;95380.47;4970535;28;20000;-51
2022/11/29 07:51:34;;;;;;;;;;;10.70;67.50;;;5.69;100.00;95385.63;4972092;28;19956;-48
2022/11/29 07:54:00;;;;;;;;;;;10.80;67.40;;;5.70;100.00;95389.84;4992047;28;20023;-51
2022/11/29 07:56:25;;;;;;;;;;;10.80;67.40;;;5.72;100.00;95385.13;4974004;28;20427;-49
2022/11/29 07:58:51;;;;;;;;;;;10.90;67.40;;;5.76;100.00;95391.53;4989432;28;20441;-51
2022/11/29 08:01:17;;;;;;;;;;;10.90;67.30;;;5.78;100.00;95395.56;4992462;28;20363;-51
2022/11/29 08:03:48;;;;;;;;;;;11.00;67.30;;;5.84;100.00;95399.09;4987358;28;20011;-48
2022/11/29 08:06:25;;;;;;;;;;;11.00;67.30;;;5.87;100.00;95395.97;4992952;28;19909;-49
2022/11/29 08:09:01;;;;;;;;;;;11.10;67.30;;;5.93;100.00;95405.63;4957202;28;20004;-49
2022/11/29 08:11:27;;;;;;;;;;;11.10;67.20;;;5.97;100.00;95403.28;4991188;28;19917;-48
2022/11/29 08:14:00;;;;;;;;;;;11.20;67.20;;;6.00;100.00;95403.63;5007680;28;20016;-49
2022/11/29 08:16:27;;;;;;;;;;;11.20;67.10;;;6.01;100.00;95404.41;5003942;28;20050;-49
2022/11/29 08:18:53;;;;;;;;;;;11.30;67.10;;;6.07;100.00;95407.94;5011293;28;19913;-50
2022/11/29 08:21:18;;;;;;;;;;;11.40;67.10;;;6.15;100.00;95405.72;4977616;28;19909;-49
2022/11/29 08:23:46;;;;;;;;;;;11.40;67.00;;;6.23;100.00;95405.28;5010823;28;20291;-52
2022/11/29 08:26:20;;;;;;;;;;;11.50;67.00;;;6.29;100.00;95408.81;4993212;28;19909;-51
2022/11/29 08:28:51;;;;;;;;;;;11.60;67.00;;;6.32;100.00;95408.34;5011464;28;19963;-47
2022/11/29 08:31:18;;;;;;;;;;;11.60;66.90;;;6.34;100.00;95416.84;5011352;28;19908;-49
2022/11/29 08:33:44;;;;;;;;;;;11.70;66.80;;;6.37;100.00;95415.56;4994864;28;19916;-49
2022/11/29 08:36:15;;;;;;;;;;;11.70;66.70;;;6.43;100.00;95414.59;5011767;28;19966;-49
2022/11/29 08:38:41;;;;;;;;;;;11.80;66.70;;;6.47;100.00;95413.88;5010394;28;20028;-49
2022/11/29 08:41:23;;;;;;;;;;;11.90;66.60;;;6.47;100.00;95415.72;4994141;28;19908;-50
2022/11/29 08:43:55;;;;;;;;;;;11.90;66.50;;;6.54;100.00;95416.34;5006464;28;19910;-49
2022/11/29 08:46:21;;;;;;;;;;;12.00;66.50;;;6.57;100.00;95418.50;5009933;28;19913;-49
2022/11/29 08:48:47;;;;;;;;;;;12.00;66.40;;;6.61;100.00;95416.16;4977702;28;19909;-51
2022/11/29 08:51:14;;;;;;;;;;;12.10;66.30;;;6.61;100.00;95414.34;4997997;28;19913;-49
2022/11/29 08:53:45;;;;;;;;;;;12.10;66.20;;;6.69;100.00;95421.84;5030461;28;20016;-50
2022/11/29 08:56:19;;;;;;;;;;;12.20;66.10;;;6.82;100.00;95414.59;5022901;28;19909;-49
2022/11/29 08:58:45;;;;;;;;;;;12.30;66.10;;;6.88;100.00;95419.72;4994257;28;19917;-49
2022/11/29 09:01:17;;;;;;;;;;;12.40;66.10;;;6.95;100.00;95419.53;5010082;28;19909;-51
2022/11/29 09:04:05;;;;;;;;;;;12.40;66.00;;;6.97;99.34;95419.31;5011656;28;20433;-49
2022/11/29 09:06:39;;;;;;;;;;;12.50;65.90;;;7.03;98.81;95427.06;4996780;28;19909;-52
2022/11/29 09:09:05;;;;;;;;;;;12.60;65.80;;;7.10;98.68;95422.38;5009352;28;19951;-49
2022/11/29 09:11:35;;;;;;;;;;;12.60;65.70;;;7.12;97.96;95427.44;4990320;28;20375;-49
2022/11/29 09:14:06;;;;;;;;;;;12.70;65.70;;;7.19;97.15;95430.72;4987142;28;20298;-51
2022/11/29 09:16:35;;;;;;;;;;;12.80;65.70;;;7.25;96.96;95428.94;4980701;28;19918;-49
2022/11/29 09:19:06;;;;;;;;;;;12.80;65.60;;;7.31;95.94;95427.94;4974649;28;19929;-55
2022/11/29 09:21:35;;;;;;;;;;;12.90;65.40;;;7.35;95.25;95429.03;4972057;28;19909;-49
2022/11/29 09:24:05;;;;;;;;;;;12.90;65.40;;;7.37;94.86;95430.41;4987487;28;19937;-50
2022/11/29 09:26:36;;;;;;;;;;;12.90;65.30;;;7.37;93.65;95446.28;4985791;28;20288;-55
2022/11/29 09:29:05;;;;;;;;;;;13.00;65.20;;;7.41;93.60;95436.00;4986485;28;19940;-53
2022/11/29 09:31:33;;;;;;;;;;;13.00;65.00;;;7.41;93.44;95443.94;4973928;28;19952;-52
2022/11/29 09:33:59;;;;;;;;;;;13.10;64.90;;;7.52;93.05;95437.72;4957151;28;19914;-50
2022/11/29 09:36:27;;;;;;;;;;;13.10;64.80;;;7.58;92.37;95441.22;4970097;28;19914;-51
2022/11/29 09:38:53;;;;;;;;;;;13.20;64.80;;;7.57;90.98;95444.91;4988059;28;19917;-51
2022/11/29 09:41:47;;;;;;;;;;;13.20;64.60;;;7.58;90.63;95451.81;4990308;28;20276;-53
2022/11/29 09:44:31;;;;;;;;;;;13.30;64.50;;;7.64;90.01;95451.63;4980624;28;19917;-52
2022/11/29 09:47:11;;;;;;;;;;;13.30;64.40;;;7.68;90.92;95451.94;5004574;28;19918;-51
2022/11/29 09:50:05;;;;;;;;;;;13.40;64.30;;;7.75;90.09;95447.25;4989349;28;19914;-52
2022/11/29 09:52:58;;;;;;;;;;;13.40;64.30;;;7.76;89.49;95448.03;4991395;28;19909;-50
2022/11/29 09:55:59;;;;;;;;;;;13.40;64.20;;;7.82;88.88;95452.34;5007156;28;19913;-50
2022/11/29 09:58:36;;;;;;;;;;;13.50;64.10;;;7.89;89.68;95444.97;4975323;28;19918;-49
2022/11/29 10:01:19;;;;;;;;;;;13.60;64.00;;;7.98;88.07;95448.00;4977511;28;19909;-49
2022/11/29 10:03:57;;;;;;;;;;;13.70;64.00;;;8.01;87.65;95444.84;4998995;28;20003;-49
2022/11/29 10:06:32;;;;;;;;;;;13.70;63.80;;;8.11;87.16;95440.41;4986342;28;19920;-49
2022/11/29 10:09:26;;;;;;;;;;;13.80;63.80;;;8.14;87.07;95447.06;4985705;28;19909;-50
2022/11/29 10:12:38;;;;;;;;;;;13.80;63.60;;;8.09;87.12;95450.50;4976041;28;19971;-49
2022/11/29 10:15:24;;;;;;;;;;;13.80;63.50;;;8.17;87.25;95446.56;4957575;28;19941;-50
2022/11/29 10:18:17;;;;;;;;;;;13.80;63.50;;;8.20;86.13;95442.63;4986586;28;19921;-53
2022/11/29 10:20:57;;;;;;;;;;;13.80;63.50;;;8.30;86.23;95440.88;5049370;22;19925;-50
2022/11/29 10:23:47;;;;;;;;;;;13.80;63.60;;;8.37;86.18;95445.97;5013453;28;20411;-49
2022/11/29 10:26:14;;;;;;;;;;;13.90;63.60;;;8.32;85.52;95438.72;5015160;28;20286;-49
2022/11/29 10:28:46;;;;;;;;;;;13.90;63.50;;;8.41;85.33;95448.94;5008761;28;19948;-48
2022/11/29 10:31:25;;;;;;;;;;;14.00;63.40;;;8.49;83.89;95449.25;5010471;28;20000;-49
2022/11/29 10:33:56;;;;;;;;;;;14.00;63.20;;;8.46;83.80;95440.97;4993375;28;19909;-50
2022/11/29 10:36:53;;;;;;;;;;;14.10;63.20;;;8.49;82.90;95445.78;5008756;28;19909;-50
2022/11/29 10:39:43;;;;;;;;;;;14.10;62.90;;;8.57;83.48;95440.00;5008370;28;19951;-52
2022/11/29 10:45:38;;;;;;;;;;;14.20;62.80;;;8.72;81.81;95442.78;5004108;28;20012;-50
2022/11/29 10:48:12;;;;;;;;;;;14.20;62.60;;;8.60;82.06;95438.72;5010642;28;19909;-51
2022/11/29 10:50:42;;;;;;;;;;;14.20;62.50;;;8.58;82.65;95437.09;5009265;28;19909;-49
2022/11/29 10:53:37;;;;;;;;;;;14.20;62.30;;;8.64;83.32;95440.59;5008795;28;19909;-51
2022/11/29 10:56:17;;;;;;;;;;;14.20;62.20;;;8.65;81.80;95436.06;4977018;28;19913;-52
2022/11/29 10:58:57;;;;;;;;;;;14.30;62.30;;;8.71;83.33;95443.84;5007576;28;19913;-49
2022/11/29 11:01:27;;;;;;;;;;;14.30;62.30;;;8.67;82.84;95437.44;5011163;28;19956;-49
2022/11/29 11:03:59;;;;;;;;;;;14.30;62.20;;;8.63;83.83;95433.69;5013755;28;19913;-49
2022/11/29 11:06:55;;;;;;;;;;;14.40;62.00;;;8.71;82.44;95440.38;5005278;28;19935;-49
2022/11/29 11:09:46;;;;;;;;;;;14.40;61.90;;;8.73;81.76;95440.91;4914365;28;264166;-49
2022/11/29 11:12:15;;;;;;;;;;;14.30;61.80;;;8.74;82.32;95437.19;4999218;28;20006;-49
2022/11/29 11:14:42;;;;;;;;;;;14.40;61.80;;;8.76;83.38;95435.09;5013063;28;19909;-49
2022/11/29 11:17:30;;;;;;;;;;;14.40;61.80;;;8.80;83.55;95439.63;5002613;28;19910;-49
2022/11/29 11:20:07;;;;;;;;;;;14.50;61.80;;;8.74;81.78;95437.19;5011988;28;20080;-49
2022/11/29 11:22:38;;;;;;;;;;;14.50;61.60;;;8.74;82.58;95438.03;5004182;28;19916;-55
2022/11/29 11:25:31;;;;;;;;;;;14.50;61.40;;;8.79;81.78;95440.69;4999095;28;20375;-52
2022/11/29 11:28:21;;;;;;;;;;;14.50;61.40;;;8.84;81.26;95439.13;4987438;28;19913;-49
2022/11/29 11:31:10;;;;;;;;;;;14.60;61.40;;;8.77;82.57;95445.47;4997719;28;19909;-49
2022/11/29 11:33:40;;;;;;;;;;;14.60;61.20;;;8.79;80.45;95430.06;4999995;28;19917;-49
2022/11/29 11:36:18;;;;;;;;;;;14.60;61.10;;;8.75;79.39;95436.16;5015803;28;20451;-49
2022/11/29 11:38:53;;;;;;;;;;;14.60;61.00;;;8.80;80.43;95439.63;4999088;28;19971;-49
2022/11/29 11:44:53;;;;;;;;;;;14.60;60.90;;;8.78;78.46;95438.31;4995380;28;20000;-49
2022/11/29 11:47:40;;;;;;;;;;;14.50;60.80;;;8.83;80.21;95437.53;4993249;28;19936;-49
2022/11/29 11:50:41;;;;;;;;;;;14.50;60.80;;;8.83;79.25;95440.19;4998190;28;19924;-51
2022/11/29 11:53:39;;;;;;;;;;;14.40;60.80;;;8.79;80.95;95448.66;5013231;28;20047;-49
2022/11/29 11:56:12;;;;;;;;;;;14.40;60.80;;;8.61;79.59;95443.75;4996209;28;19909;-49
2022/11/29 11:58:55;;;;;;;;;;;14.30;60.60;;;8.61;80.75;95445.63;4978753;28;19913;-49
2022/11/29 12:01:37;;;;;;;;;;;14.30;60.50;;;8.62;80.75;95440.06;4991928;28;20391;-52
2022/11/29 12:04:18;;;;;;;;;;;14.30;60.50;;;8.58;79.66;95445.06;5003184;28;19913;-53
2022/11/29 12:07:24;;;;;;;;;;;14.30;60.40;;;8.57;82.08;95447.97;4992401;28;19909;-49
2022/11/29 12:10:05;;;;;;;;;;;14.30;60.40;;;8.53;82.27;95450.34;5008602;28;20013;-49
2022/11/29 12:12:44;;;;;;;;;;;14.30;60.40;;;8.58;81.31;95450.38;4992005;28;19918;-50
2022/11/29 12:15:29;;;;;;;;;;;14.30;60.30;;;8.56;80.32;95447.19;5006088;28;19909;-48
2022/11/29 12:18:05;;;;;;;;;;;14.30;60.20;;;8.60;80.49;95455.44;4994635;28;19914;-49
2022/11/29 12:21:04;;;;;;;;;;;14.30;60.20;;;8.56;81.24;95449.84;5022358;28;20346;-50
2022/11/29 12:23:33;;;;;;;;;;;14.20;60.10;;;8.65;81.09;95449.34;5015054;28;20356;-49
2022/11/29 12:26:16;;;;;;;;;;;14.20;60.20;;;8.53;81.51;95453.00;5011687;28;19912;-53
2022/11/29 12:28:46;;;;;;;;;;;14.20;60.20;;;8.59;80.30;95456.50;5003881;28;19952;-49
2022/11/29 12:31:53;;;;;;;;;;;14.30;60.30;;;8.61;80.28;95465.00;5012005;28;19958;-49
2022/11/29 12:34:34;;;;;;;;;;;14.30;60.30;;;8.67;78.57;95456.00;5012165;28;19909;-50
2022/11/29 12:37:48;;;;;;;;;;;14.20;60.10;;;8.67;79.31;95456.00;5012458;28;20286;-51
2022/11/29 12:40:45;;;;;;;;;;;14.30;60.10;;;8.60;80.52;95455.44;5002161;28;19917;-49
2022/11/29 12:43:47;;;;;;;;;;;14.30;60.10;;;8.66;78.82;95454.41;4988603;28;20363;-49
2022/11/29 12:46:34;;;;;;;;;;;14.40;60.00;;;8.47;78.08;95458.53;4980047;28;19909;-49